createdAt,value
2022-11-28T00:00:23.617Z,101639.63
2022-11-28T00:03:17.045Z,101641.30
2022-11-28T00:05:50.664Z,101645.61
2022-11-28T00:08:24.279Z,101643.23
2022-11-28T00:10:57.694Z,101641.14
2022-11-28T00:13:31.747Z,101643.78
2022-11-28T00:16:08.158Z,101645.45
2022-11-28T00:18:41.595Z,101643.67
2022-11-28T00:21:16.213Z,101642.70
2022-11-28T00:23:50.811Z,101638.23
2022-11-28T00:26:26.023Z,101643.52
2022-11-28T00:29:00.677Z,101644.37
2022-11-28T00:31:43.026Z,101644.37
2022-11-28T00:34:17.871Z,101647.83
2022-11-28T00:36:51.689Z,101644.37
2022-11-28T00:39:25.375Z,101648.67
2022-11-28T00:41:58.520Z,101632.84
2022-11-28T00:44:31.787Z,101636.30
2022-11-28T00:47:05.158Z,101634.52
2022-11-28T00:49:40.080Z,101636.30
2022-11-28T00:52:13.937Z,101641.58
2022-11-28T00:54:47.485Z,101635.48
2022-11-28T00:57:21.093Z,101642.42
2022-11-28T00:59:54.683Z,101632.70
2022-11-28T01:02:28.033Z,101637.16
2022-11-28T01:05:01.881Z,101642.42
2022-11-28T01:07:36.146Z,101639.09
2022-11-28T01:10:12.566Z,101646.03
2022-11-28T01:12:46.317Z,101646.03
2022-11-28T01:15:19.761Z,101643.40
2022-11-28T01:17:52.687Z,101638.23
2022-11-28T01:20:26.344Z,101631.17
2022-11-28T01:22:59.779Z,101632.14
2022-11-28T01:25:33.804Z,101625.20
2022-11-28T01:28:07.801Z,101635.75
2022-11-28T01:30:42.244Z,101623.37
2022-11-28T01:33:15.589Z,101622.56
2022-11-28T01:35:58.545Z,101612.00
2022-11-28T01:38:31.986Z,101618.25
2022-11-28T01:41:05.462Z,101616.58
2022-11-28T01:43:58.237Z,101616.58
2022-11-28T01:46:29.799Z,101614.06
2022-11-28T01:49:08.891Z,101616.85
2022-11-28T01:51:43.792Z,101612.39
2022-11-28T01:54:20.120Z,101606.30
2022-11-28T01:56:57.999Z,101605.59
2022-11-28T01:59:35.799Z,101595.05
2022-11-28T02:02:15.166Z,101609.06
2022-11-28T02:04:49.704Z,101591.56
2022-11-28T02:07:23.153Z,101591.44
2022-11-28T02:09:57.160Z,101593.23
2022-11-28T02:12:46.134Z,101595.05
2022-11-28T02:15:35.282Z,101588.92
2022-11-28T02:18:24.247Z,101589.77
2022-11-28T02:21:23.269Z,101581.86
2022-11-28T02:24:22.233Z,101581.98
2022-11-28T02:27:18.713Z,101584.62
2022-11-28T02:30:08.095Z,101581.98
2022-11-28T02:33:03.619Z,101582.13
2022-11-28T02:35:45.239Z,101584.62
2022-11-28T02:38:24.903Z,101586.44
2022-11-28T02:41:04.320Z,101590.05
2022-11-28T02:43:45.904Z,101583.09
2022-11-28T02:46:27.476Z,101589.19
2022-11-28T02:49:05.652Z,101592.68
2022-11-28T02:51:43.714Z,101591.02
2022-11-28T02:54:19.995Z,101585.73
2022-11-28T02:56:54.422Z,101587.52
2022-11-28T02:59:47.233Z,101585.03
2022-11-28T03:02:21.073Z,101581.55
2022-11-28T03:05:03.653Z,101586.13
2022-11-28T03:07:52.240Z,101584.61
2022-11-28T03:10:31.101Z,101579.33
2022-11-28T03:13:14.751Z,101590.70
2022-11-28T03:15:58.215Z,101579.45
2022-11-28T03:18:37.721Z,101584.72
2022-11-28T03:21:19.922Z,101592.64
2022-11-28T03:23:54.131Z,101587.36
2022-11-28T03:26:33.728Z,101581.27
2022-11-28T03:29:15.919Z,101583.20
2022-11-28T03:31:54.534Z,101587.52
2022-11-28T03:34:32.758Z,101576.97
2022-11-28T03:37:10.533Z,101576.11
2022-11-28T03:39:50.138Z,101580.56
2022-11-28T03:42:27.011Z,101578.90
2022-11-28T03:45:08.394Z,101570.14
2022-11-28T03:47:47.522Z,101578.05
2022-11-28T03:50:26.873Z,101576.27
2022-11-28T03:53:04.350Z,101585.96
2022-11-28T03:55:42.877Z,101582.51
2022-11-28T03:58:25.469Z,101586.11
2022-11-28T04:01:10.239Z,101587.90
2022-11-28T04:03:53.763Z,101586.93
2022-11-28T04:06:31.489Z,101583.59
2022-11-28T04:09:14.401Z,101589.72
2022-11-28T04:11:53.316Z,101589.98
2022-11-28T04:14:33.351Z,101589.28
2022-11-28T04:17:11.806Z,101592.04
2022-11-28T04:19:51.346Z,101595.64
2022-11-28T04:22:30.610Z,101594.94
2022-11-28T04:25:08.734Z,101600.22
2022-11-28T04:27:47.519Z,101592.45
2022-11-28T04:30:21.486Z,101591.75
2022-11-28T04:33:02.234Z,101601.33
2022-11-28T04:35:39.231Z,101593.69
2022-11-28T04:38:14.847Z,101592.84
2022-11-28T04:40:53.582Z,101593.10
2022-11-28T04:43:31.901Z,101600.19
2022-11-28T04:46:11.121Z,101606.41
2022-11-28T04:48:45.570Z,101604.88
2022-11-28T04:51:23.545Z,101607.63
2022-11-28T04:54:07.997Z,101606.11
2022-11-28T04:56:45.452Z,101602.89
2022-11-28T04:59:20.042Z,101604.70
2022-11-28T05:01:54.023Z,101613.58
2022-11-28T05:04:27.518Z,101611.91
2022-11-28T05:07:06.870Z,101611.91
2022-11-28T05:09:40.739Z,101613.69
2022-11-28T05:12:13.587Z,101620.08
2022-11-28T05:14:47.238Z,101621.04
2022-11-28T05:17:20.881Z,101615.06
2022-11-28T05:19:54.124Z,101615.18
2022-11-28T05:22:27.541Z,101613.39
2022-11-28T05:25:01.082Z,101612.55
2022-11-28T05:27:34.619Z,101612.69
2022-11-28T05:30:13.471Z,101618.08
2022-11-28T05:32:46.938Z,101619.04
2022-11-28T05:35:20.740Z,101615.59
2022-11-28T05:37:53.821Z,101618.22
2022-11-28T05:40:26.976Z,101620.86
2022-11-28T05:43:00.401Z,101624.57
2022-11-28T05:45:34.339Z,101636.78
2022-11-28T05:48:08.405Z,101634.15
2022-11-28T05:50:44.159Z,101645.66
2022-11-28T05:53:18.399Z,101640.53
2022-11-28T05:55:51.992Z,101645.91
2022-11-28T05:58:25.190Z,101651.19
2022-11-28T06:00:58.782Z,101658.38
2022-11-28T06:03:32.175Z,101661.98
2022-11-28T06:06:06.049Z,101656.71
2022-11-28T06:08:39.441Z,101662.94
2022-11-28T06:11:15.071Z,101663.91
2022-11-28T06:13:49.443Z,101666.55
2022-11-28T06:16:24.660Z,101666.69
2022-11-28T06:18:59.673Z,101666.94
2022-11-28T06:21:33.811Z,101666.94
2022-11-28T06:24:08.885Z,101669.69
2022-11-28T06:26:42.558Z,101664.42
2022-11-28T06:29:15.819Z,101668.73
2022-11-28T06:31:49.218Z,101667.05
2022-11-28T06:34:23.147Z,101674.00
2022-11-28T06:36:56.953Z,101671.51
2022-11-28T06:39:30.551Z,101668.88
2022-11-28T06:42:04.366Z,101670.66
2022-11-28T06:44:37.799Z,101671.61
2022-11-28T06:47:11.496Z,101668.16
2022-11-28T06:49:45.203Z,101667.20
2022-11-28T06:52:18.784Z,101664.67
2022-11-28T06:54:52.352Z,101669.95
2022-11-28T06:57:25.217Z,101663.27
2022-11-28T06:59:58.781Z,101668.53
2022-11-28T07:02:32.240Z,101662.70
2022-11-28T07:05:06.340Z,101662.95
2022-11-28T07:07:53.059Z,101657.69
2022-11-28T07:10:30.392Z,101663.06
2022-11-28T07:13:05.687Z,101662.35
2022-11-28T07:15:39.577Z,101660.42
2022-11-28T07:18:12.876Z,101660.57
2022-11-28T07:20:46.817Z,101664.98
2022-11-28T07:23:20.670Z,101657.94
2022-11-28T07:25:58.910Z,101659.72
2022-11-28T07:28:32.850Z,101650.14
2022-11-28T07:31:08.450Z,101652.67
2022-11-28T07:33:43.195Z,101655.30
2022-11-28T07:36:19.156Z,101649.18
2022-11-28T07:38:54.058Z,101645.02
2022-11-28T07:41:28.876Z,101644.05
2022-11-28T07:44:05.854Z,101643.20
2022-11-28T07:46:40.930Z,101645.84
2022-11-28T07:49:15.087Z,101637.48
2022-11-28T07:51:48.681Z,101640.97
2022-11-28T07:54:22.871Z,101641.79
2022-11-28T07:57:11.612Z,101636.52
2022-11-28T07:59:46.302Z,101639.05
2022-11-28T08:02:19.764Z,101635.70
2022-11-28T08:04:55.340Z,101637.37
2022-11-28T08:07:29.122Z,101638.34
2022-11-28T08:10:02.642Z,101634.99
2022-11-28T08:12:36.446Z,101642.64
2022-11-28T08:15:12.283Z,101642.50
2022-11-28T08:17:45.816Z,101640.83
2022-11-28T08:20:19.941Z,101639.05
2022-11-28T08:22:53.769Z,101638.90
2022-11-28T08:25:28.021Z,101642.13
2022-11-28T08:28:01.456Z,101644.63
2022-11-28T08:30:35.018Z,101640.91
2022-11-28T08:33:08.357Z,101639.80
2022-11-28T08:35:44.382Z,101643.30
2022-11-28T08:38:17.831Z,101634.28
2022-11-28T08:40:51.055Z,101624.70
2022-11-28T08:43:24.845Z,101624.70
2022-11-28T08:45:58.392Z,101621.25
2022-11-28T08:48:31.818Z,101615.73
2022-11-28T08:51:05.603Z,101612.95
2022-11-28T08:53:39.912Z,101609.09
2022-11-28T08:56:14.344Z,101600.93
2022-11-28T08:58:47.593Z,101596.25
2022-11-28T09:01:23.764Z,101595.03
2022-11-28T09:03:58.465Z,101587.68
2022-11-28T09:06:31.878Z,101585.48
2022-11-28T09:09:05.458Z,101581.63
2022-11-28T09:11:39.290Z,101576.94
2022-11-28T09:14:13.206Z,101580.98
2022-11-28T09:16:46.715Z,101571.84
2022-11-28T09:19:20.119Z,101570.61
2022-11-28T09:21:57.667Z,101567.82
2022-11-28T09:24:31.972Z,101563.98
2022-11-28T09:27:06.209Z,101560.81
2022-11-28T09:29:39.581Z,101549.84
2022-11-28T09:32:13.281Z,101551.13
2022-11-28T09:34:46.628Z,101543.64
2022-11-28T09:37:20.379Z,101536.98
2022-11-28T09:40:12.768Z,101539.07
2022-11-28T09:42:48.054Z,101537.55
2022-11-28T09:45:24.774Z,101540.62
2022-11-28T09:48:03.085Z,101532.30
2022-11-28T09:50:40.311Z,101530.91
2022-11-28T09:53:23.150Z,101526.05
2022-11-28T09:56:01.246Z,101513.42
2022-11-28T09:58:43.059Z,101524.16
2022-11-28T10:01:26.277Z,101514.83
2022-11-28T10:04:05.240Z,101512.31
2022-11-28T10:06:48.205Z,101507.17
2022-11-28T10:09:35.526Z,101502.02
2022-11-28T10:12:28.450Z,101494.91
2022-11-28T10:15:26.835Z,101494.05
2022-11-28T10:18:19.604Z,101490.70
2022-11-28T10:20:58.285Z,101490.13
2022-11-28T10:23:37.040Z,101482.59
2022-11-28T10:26:18.021Z,101480.20
2022-11-28T10:28:55.073Z,101462.25
2022-11-28T10:31:35.027Z,101466.39
2022-11-28T10:34:16.175Z,101476.55
2022-11-28T10:36:58.899Z,101464.70
2022-11-28T10:39:32.837Z,101458.14
2022-11-28T10:42:14.433Z,101454.36
2022-11-28T10:45:13.630Z,101456.70
2022-11-28T10:48:37.133Z,101459.22
2022-11-28T10:51:09.183Z,101460.59
2022-11-28T10:53:45.619Z,101463.92
2022-11-28T10:56:31.305Z,101463.75
2022-11-28T10:59:16.169Z,101464.44
2022-11-28T11:01:51.451Z,101450.23
2022-11-28T11:04:28.705Z,101449.25
2022-11-28T11:07:21.798Z,101438.68
2022-11-28T11:09:58.244Z,101448.27
2022-11-28T11:12:36.148Z,101446.48
2022-11-28T11:15:23.641Z,101442.85
2022-11-28T11:17:58.077Z,101443.67
2022-11-28T11:20:42.100Z,101441.02
2022-11-28T11:23:20.481Z,101440.20
2022-11-28T11:25:56.363Z,101440.20
2022-11-28T11:28:42.277Z,101442.69
2022-11-28T11:31:28.445Z,101440.73
2022-11-28T11:34:09.221Z,101446.02
2022-11-28T11:36:42.814Z,101450.33
2022-11-28T11:39:25.815Z,101452.16
2022-11-28T11:44:59.658Z,101447.84
2022-11-28T11:47:46.570Z,101453.13
2022-11-28T11:50:23.897Z,101449.51
2022-11-28T11:53:09.046Z,101451.98
2022-11-28T11:55:48.948Z,101450.19
2022-11-28T11:58:25.717Z,101450.87
2022-11-28T12:01:01.262Z,101450.70
2022-11-28T12:03:38.496Z,101441.95
2022-11-28T12:06:19.246Z,101435.82
2022-11-28T12:08:55.881Z,101435.82
2022-11-28T12:11:33.007Z,101427.07
2022-11-28T12:14:26.051Z,101429.72
2022-11-28T12:17:40.433Z,101437.78
2022-11-28T12:20:28.749Z,101427.20
2022-11-28T12:26:18.026Z,101427.20
2022-11-28T12:29:06.317Z,101424.73
2022-11-28T12:31:50.128Z,101426.69
2022-11-28T12:34:37.484Z,101433.26
2022-11-28T12:37:19.799Z,101426.30
2022-11-28T12:40:01.636Z,101433.39
2022-11-28T12:42:47.046Z,101429.93
2022-11-28T12:45:38.529Z,101437.02
2022-11-28T12:48:32.862Z,101434.53
2022-11-28T12:51:16.241Z,101426.60
2022-11-28T12:54:07.417Z,101424.77
2022-11-28T12:56:50.824Z,101423.95
2022-11-28T12:59:33.698Z,101426.73
2022-11-28T13:02:26.888Z,101425.08
2022-11-28T13:05:17.148Z,101421.61
2022-11-28T13:08:15.118Z,101425.08
2022-11-28T13:10:57.524Z,101423.41
2022-11-28T13:13:36.652Z,101423.41
2022-11-28T13:16:25.108Z,101429.38
2022-11-28T13:19:06.591Z,101434.67
2022-11-28T13:21:47.782Z,101435.52
2022-11-28T13:24:29.062Z,101434.67
2022-11-28T13:27:11.347Z,101441.78
2022-11-28T13:29:52.524Z,101438.45
2022-11-28T13:32:32.562Z,101442.08
2022-11-28T13:35:07.274Z,101436.80
2022-11-28T13:40:45.375Z,101440.55
2022-11-28T13:43:25.945Z,101444.17
2022-11-28T13:45:59.998Z,101442.67
2022-11-28T13:49:14.601Z,101437.52
2022-11-28T13:51:49.535Z,101428.77
2022-11-28T13:54:48.962Z,101440.16
2022-11-28T13:57:29.088Z,101432.39
2022-11-28T14:00:22.616Z,101434.73
2022-11-28T14:03:00.390Z,101442.80
2022-11-28T14:05:37.397Z,101441.30
2022-11-28T14:08:27.273Z,101438.27
2022-11-28T14:11:16.349Z,101433.57
2022-11-28T14:14:05.691Z,101434.84
2022-11-28T14:16:54.706Z,101445.16
2022-11-28T14:19:41.770Z,101454.52
2022-11-28T14:22:28.885Z,101451.60
2022-11-28T14:25:10.882Z,101451.20
2022-11-28T14:27:55.126Z,101449.14
2022-11-28T14:30:35.470Z,101461.25
2022-11-28T14:33:17.508Z,101464.34
2022-11-28T14:36:23.583Z,101467.11
2022-11-28T14:39:34.140Z,101461.42
2022-11-28T14:42:59.787Z,101458.09
2022-11-28T14:45:48.167Z,101464.23
2022-11-28T14:48:34.069Z,101466.47
2022-11-28T14:51:07.955Z,101465.23
2022-11-28T14:53:46.150Z,101469.95
2022-11-28T14:56:32.109Z,101471.48
2022-11-28T14:59:06.434Z,101466.61
2022-11-28T15:01:52.721Z,101468.84
2022-11-28T15:04:46.881Z,101462.98
2022-11-28T15:07:30.635Z,101465.22
2022-11-28T15:10:16.355Z,101459.40
2022-11-28T15:13:03.392Z,101453.55
2022-11-28T15:15:37.194Z,101459.26
2022-11-28T15:18:13.846Z,101464.12
2022-11-28T15:20:54.110Z,101465.36
2022-11-28T15:23:31.083Z,101471.19
2022-11-28T15:26:05.187Z,101461.04
2022-11-28T15:28:39.334Z,101461.47
2022-11-28T15:31:23.449Z,101467.71
2022-11-28T15:33:57.376Z,101464.50
2022-11-28T15:36:31.843Z,101462.83
2022-11-28T15:39:05.468Z,101461.31
2022-11-28T15:41:38.804Z,101453.67
2022-11-28T15:44:18.695Z,101447.70
2022-11-28T15:46:52.580Z,101450.47
2022-11-28T15:49:31.823Z,101455.19
2022-11-28T15:52:06.647Z,101457.25
2022-11-28T15:54:44.090Z,101453.91
2022-11-28T15:57:25.333Z,101456.82
2022-11-28T15:59:59.051Z,101457.09
2022-11-28T16:02:38.975Z,101454.73
2022-11-28T16:05:21.144Z,101450.55
2022-11-28T16:07:55.340Z,101445.54
2022-11-28T16:10:34.204Z,101443.17
2022-11-28T16:16:32.735Z,101434.14
2022-11-28T16:19:12.553Z,101438.16
2022-11-28T16:22:02.165Z,101435.64
2022-11-28T16:25:01.677Z,101439.25
2022-11-28T16:27:50.852Z,101434.25
2022-11-28T16:30:46.797Z,101432.73
2022-11-28T16:33:48.480Z,101432.14
2022-11-28T16:36:49.367Z,101429.78
2022-11-28T17:14:49.229Z,101421.27
2022-11-28T17:21:03.634Z,101423.45
2022-11-28T17:23:43.998Z,101420.12
2022-11-28T17:26:42.566Z,101419.41
2022-11-28T17:29:43.503Z,101414.30
2022-11-28T17:32:25.565Z,101409.41
2022-11-28T17:35:11.456Z,101412.19
2022-11-28T17:38:00.135Z,101410.63
2022-11-28T17:40:37.311Z,101403.84
2022-11-28T17:46:50.348Z,101408.77
2022-11-28T17:49:28.242Z,101411.80
2022-11-28T17:52:08.207Z,101406.66
2022-11-28T17:54:43.722Z,101410.51
2022-11-28T17:57:22.822Z,101414.24
2022-11-28T18:04:28.224Z,101410.05
2022-11-28T18:07:05.089Z,101414.75
2022-11-28T18:09:42.672Z,101414.75
2022-11-28T18:12:22.269Z,101412.13
2022-11-28T18:15:01.464Z,101404.34
2022-11-28T18:18:42.930Z,101408.64
2022-11-28T18:26:31.766Z,101401.27
2022-11-28T18:29:33.999Z,101400.70
2022-11-28T18:32:08.283Z,101398.44
2022-11-28T18:34:41.650Z,101399.28
2022-11-28T18:38:04.925Z,101400.25
2022-11-28T18:40:39.832Z,101399.65
2022-11-28T18:43:13.176Z,101388.42
2022-11-28T18:45:47.770Z,101389.53
2022-11-28T18:48:23.169Z,101397.52
2022-11-28T18:50:56.736Z,101396.81
2022-11-28T18:53:30.217Z,101396.11
2022-11-28T18:56:11.441Z,101397.21
2022-11-28T18:58:46.491Z,101398.28
2022-11-28T19:01:22.610Z,101397.46
2022-11-28T19:03:58.471Z,101398.42
2022-11-28T19:06:32.517Z,101398.53
2022-11-28T19:09:10.673Z,101394.13
2022-11-28T19:11:46.588Z,101394.23
2022-11-28T19:14:21.715Z,101388.16
2022-11-28T19:17:00.164Z,101390.78
2022-11-28T19:19:40.285Z,101389.94
2022-11-28T19:22:14.013Z,101388.52
2022-11-28T19:24:47.309Z,101395.59
2022-11-28T19:27:22.809Z,101394.88
2022-11-28T19:29:56.140Z,101391.54
2022-11-28T19:32:29.540Z,101394.27
2022-11-28T19:35:04.851Z,101396.19
2022-11-28T19:37:38.335Z,101406.00
2022-11-28T19:40:15.992Z,101408.77
2022-11-28T19:42:49.409Z,101406.24
2022-11-28T19:45:22.767Z,101408.05
2022-11-28T19:47:58.600Z,101396.83
2022-11-28T19:50:32.242Z,101405.67
2022-11-28T19:53:05.646Z,101411.03
2022-11-28T19:56:01.777Z,101416.29
2022-11-28T19:58:39.823Z,101406.02
2022-11-28T20:01:16.999Z,101418.20
2022-11-28T20:03:52.636Z,101412.95
2022-11-28T20:06:34.104Z,101404.25
2022-11-28T20:09:12.740Z,101400.91
2022-11-28T20:12:28.420Z,101401.62
2022-11-28T20:15:06.124Z,101395.41
2022-11-28T20:17:39.394Z,101399.81
2022-11-28T20:20:14.081Z,101392.07
2022-11-28T20:22:51.467Z,101399.81
2022-11-28T20:25:26.313Z,101398.99
2022-11-28T20:28:04.564Z,101401.62
2022-11-28T20:30:41.336Z,101406.98
2022-11-28T20:33:35.627Z,101404.36
2022-11-28T20:36:16.570Z,101404.36
2022-11-28T20:38:50.866Z,101404.36
2022-11-28T20:41:27.452Z,101403.53
2022-11-28T20:44:02.076Z,101393.84
2022-11-28T20:46:36.762Z,101393.98
2022-11-28T20:49:11.749Z,101397.68
2022-11-28T20:51:45.143Z,101391.47
2022-11-28T20:54:19.055Z,101398.17
2022-11-28T20:57:20.342Z,101402.22
2022-11-28T20:59:49.348Z,101400.45
2022-11-28T21:02:24.435Z,101397.81
2022-11-28T21:05:02.259Z,101403.18
2022-11-28T21:07:36.470Z,101397.11
2022-11-28T21:10:11.259Z,101399.73
2022-11-28T21:12:44.814Z,101397.11
2022-11-28T21:15:17.965Z,101401.41
2022-11-28T21:17:51.184Z,101410.34
2022-11-28T21:20:24.100Z,101413.69
2022-11-28T21:22:57.048Z,101417.17
2022-11-28T21:25:29.988Z,101419.80
2022-11-28T21:28:02.946Z,101415.36
2022-11-28T21:30:40.445Z,101416.31
2022-11-28T21:33:14.856Z,101417.98
2022-11-28T21:35:47.798Z,101410.10
2022-11-28T21:38:20.968Z,101410.10
2022-11-28T21:40:59.645Z,101416.31
2022-11-28T21:43:33.249Z,101415.60
2022-11-28T21:46:08.554Z,101419.08
2022-11-28T21:48:42.619Z,101421.95
2022-11-28T21:51:22.130Z,101413.11
2022-11-28T21:53:57.811Z,101413.83
2022-11-28T21:56:30.995Z,101408.68
2022-11-28T21:59:05.036Z,101399.02
2022-11-28T22:01:38.453Z,101392.92
2022-11-28T22:04:14.072Z,101394.83
2022-11-28T22:06:46.988Z,101403.32
2022-11-28T22:09:19.965Z,101407.72
2022-11-28T22:11:53.319Z,101406.05
2022-11-28T22:14:26.644Z,101406.91
2022-11-28T22:17:00.891Z,101399.84
2022-11-28T22:19:36.460Z,101395.55
2022-11-28T22:22:09.610Z,101399.13
2022-11-28T22:24:47.464Z,101397.46
2022-11-28T22:27:21.737Z,101394.83
2022-11-28T22:29:55.258Z,101400.22
2022-11-28T22:32:28.106Z,101398.55
2022-11-28T22:35:02.778Z,101388.87
2022-11-28T22:37:35.828Z,101392.59
2022-11-28T22:40:11.473Z,101391.73
2022-11-28T22:42:44.508Z,101382.33
2022-11-28T22:45:17.701Z,101377.08
2022-11-28T22:47:50.477Z,101384.00
2022-11-28T22:50:23.613Z,101383.14
2022-11-28T22:52:57.449Z,101378.74
2022-11-28T22:55:30.252Z,101382.19
2022-11-28T22:58:03.958Z,101373.59
2022-11-28T23:00:37.276Z,101374.31
2022-11-28T23:03:10.443Z,101371.69
2022-11-28T23:05:48.974Z,101369.20
2022-11-28T23:08:24.271Z,101362.84
2022-11-28T23:10:57.316Z,101358.44
2022-11-28T23:13:32.812Z,101364.52
2022-11-28T23:16:41.297Z,101361.06
2022-11-28T23:19:16.865Z,101359.26
2022-11-28T23:21:52.979Z,101359.97
2022-11-28T23:24:26.668Z,101353.76
2022-11-28T23:27:00.044Z,101366.65
2022-11-28T23:29:33.503Z,101350.88
2022-11-28T23:32:06.854Z,101346.48
2022-11-28T23:34:40.440Z,101351.73
2022-11-28T23:37:13.716Z,101339.66
2022-11-28T23:39:46.755Z,101345.77
2022-11-28T23:42:19.996Z,101345.77
2022-11-28T23:44:53.035Z,101354.47
2022-11-28T23:47:25.991Z,101348.26
2022-11-28T23:50:01.159Z,101350.06
2022-11-28T23:52:34.135Z,101342.19
2022-11-28T23:55:08.294Z,101332.50
2022-11-28T23:57:41.146Z,101330.83
